Almont, ND

11:47 AM MDT on August 20, 2014 (GMT -0600)
Glen Ullin Rgnl, Glen Ullin, | Change Station
CLOSE
Current Station
Airport
Location: Glen Ullin Rgnl, Glen Ullin,,
Elevation: 2087 ft
Nearby Weather Stations

Elev 2087 ft 46.81 °N, 101.86 °W | Updated 12 minutes ago

Clear
Clear
73 °F
Feels Like 73 °F
N
5
Wind Variable Wind from ESE

Today
High -- | Low -- °F
--% Chance of Precip.
Yesterday
High -- | Low -- °F
Precip. -- in
5:50 AM 7:47 PM
Waning Crescent, 20% visible
Pressure 29.70 in
Visibility 10.0 miles
Clouds Clear
Dew Point 66 °F
Humidity 78%
Rainfall 0.00 in
Snow Depth Not available.
UV 8 out of 12
Pollen 9.20 out of 12
Air Quality Not available.
Flu Activity Not available.
METAR KD57 201735Z AUTO 11004KT 10SM CLR 23/19 A2970 RMK AO2

More Conditions Fewer Conditions

Pressure 29.70 in
Visibility 10.0 miles
Clouds Clear
Dew Point 66 °F
Humidity 78%
Rainfall 0.00 in
Snow Depth Not available.
UV 8 out of 12
Pollen 9.20 out of 12
Air Quality Not available.
Flu Activity Not available.
METAR KD57 201735Z AUTO 11004KT 10SM CLR 23/19 A2970 RMK AO2

More Conditions Fewer Conditions

10-Day Weather Forecast

Almanac

Astronomy

Aug. 20, 2014 Rise Set
Actual Time 5:50 AM MDT 7:47 PM MDT
Civil Twilight 5:18 AM MDT 8:19 PM MDT
Nautical Twilight 4:37 AM MDT 8:59 PM MDT
Astronomical Twilight 3:53 AM MDT 9:43 PM MDT
Moon 1:25 AM MDT 4:40 PM MDT
Length of Visible Light 15h 01m
Length of Day
13h 56m
Tomorrow will be 3m 4s shorter.
Waning Crescent, 20% of the Moon is Illuminated
Today
Waning Crescent
Aug 25
New
Sep 2
First Quarter
Sep 8
Full
Sep 15
Last Quarter

Today's Extremes

State Highs State Lows

Community

WunderPhotos

Upload Photos

1,745,699 photos uploaded!

WunderBlogs® & News

By Dr. Jeff Masters
Director of Meteorology, Weather Underground
By Kari Strenfel
Meteorologist, Weather Underground
By Christopher C. Burt
Weather Historian, Weather Underground
August 20, 2014
August 20, 2014
August 20, 2014

Nearby

Snow Depth

Station Depth Elevation
No new snow has been reported.

Earthquake Activity

City Distance Mag. Time & Date
No recent earthquake activity has been reported nearby.
Minimum magnitude displayed is 2.5.

Coastal Water Temperatures

Place Temperature
No Stations Reporting

Nearby Weather Stations